Time;durP1;ratioP1;P1;durP2;ratioP2;P2;SDS_P1;SDS_P2;PMS_P1;PMS_P2;Temp;Humidity;BMP_temperature;BMP_pressure;BME280_temperature;BME280_humidity;BME280_pressure;Samples;Min_cycle;Max_cycle;Signal;HPM_P1;HPM_P2
2021/12/07 00:01:01;;;;;;;85.80;29.20;;;;;;;0.37;80.68;100645.44;5050768;28;20051;-66
2021/12/07 00:03:27;;;;;;;66.63;24.17;;;;;;;0.22;80.63;100649.94;5049175;28;20045;-65
2021/12/07 00:05:53;;;;;;;80.78;28.33;;;;;;;0.22;80.49;100639.63;5034689;28;20073;-65
2021/12/07 00:08:20;;;;;;;63.35;24.40;;;;;;;0.02;81.06;100639.84;5038499;28;20069;-65
2021/12/07 00:10:50;;;;;;;62.08;25.58;;;;;;;0.06;80.87;100643.25;5042599;28;20049;-65
2021/12/07 00:13:16;;;;;;;87.27;28.73;;;;;;;0.36;79.54;100632.59;5048153;28;20502;-65
2021/12/07 00:15:43;;;;;;;78.60;28.55;;;;;;;0.61;78.85;100641.72;5042183;28;20068;-65
2021/12/07 00:18:09;;;;;;;69.68;25.98;;;;;;;0.46;79.39;100629.00;5050833;28;20049;-65
2021/12/07 00:20:36;;;;;;;64.65;25.63;;;;;;;0.90;77.64;100625.84;5038202;28;20061;-65
2021/12/07 00:23:07;;;;;;;71.05;27.75;;;;;;;0.84;77.18;100621.63;5037015;28;20551;-65
2021/12/07 00:25:34;;;;;;;67.22;26.02;;;;;;;0.80;77.59;100614.81;5049887;28;20045;-65
2021/12/07 00:28:02;;;;;;;68.28;25.20;;;;;;;0.60;77.77;100611.63;5037556;28;20107;-65
2021/12/07 00:30:32;;;;;;;73.40;26.85;;;;;;;0.44;79.04;100599.81;5050061;28;20049;-65
2021/12/07 00:33:10;;;;;;;69.33;23.60;;;;;;;0.38;79.21;100594.72;5050457;28;20658;-65
2021/12/07 00:35:37;;;;;;;63.42;26.13;;;;;;;0.71;77.59;100596.00;5048625;28;20052;-65
2021/12/07 00:38:06;;;;;;;60.83;24.92;;;;;;;0.58;77.77;100607.38;5034563;28;20068;-65
2021/12/07 00:40:33;;;;;;;64.18;23.67;;;;;;;0.68;77.34;100598.63;5045389;28;20045;-65
2021/12/07 00:43:00;;;;;;;54.53;22.15;;;;;;;0.78;76.95;100588.16;5035612;28;20044;-66
2021/12/07 00:45:31;;;;;;;59.65;24.10;;;;;;;0.48;77.18;100601.50;5049774;28;20068;-66
2021/12/07 00:47:57;;;;;;;62.80;23.27;;;;;;;0.60;77.27;100596.16;5049755;28;20497;-67
2021/12/07 00:50:26;;;;;;;67.75;25.55;;;;;;;0.79;75.92;100600.19;5047187;28;20049;-66
2021/12/07 00:52:53;;;;;;;64.25;23.92;;;;;;;0.98;75.26;100599.06;5043180;28;20059;-66
2021/12/07 00:55:23;;;;;;;60.38;23.02;;;;;;;0.68;76.31;100594.31;5039093;28;20049;-66
2021/12/07 00:57:52;;;;;;;42.75;17.00;;;;;;;0.68;75.68;100594.31;5042249;28;20049;-66
2021/12/07 01:00:21;;;;;;;54.60;21.02;;;;;;;0.68;76.10;100594.31;5052149;28;20060;-66
2021/12/07 01:02:49;;;;;;;59.75;23.95;;;;;;;0.92;75.50;100591.38;5041831;28;20060;-65
2021/12/07 01:05:21;;;;;;;51.45;21.08;;;;;;;0.58;76.13;100597.06;5049263;28;20110;-66
2021/12/07 01:07:59;;;;;;;55.78;22.13;;;;;;;0.59;76.66;100593.59;5048246;28;20051;-66
2021/12/07 01:26:51;;;;;;;54.55;22.52;;;;;;;0.53;76.55;100578.19;5041800;28;20080;-66
2021/12/07 01:29:21;;;;;;;52.92;20.85;;;;;;;0.77;75.97;100577.88;5029201;28;20443;-66
2021/12/07 01:31:54;;;;;;;44.42;18.35;;;;;;;0.91;75.24;100561.31;5029596;28;20046;-66
2021/12/07 01:34:44;;;;;;;50.72;21.13;;;;;;;0.83;75.00;100560.56;5035888;28;20049;-66
2021/12/07 01:37:27;;;;;;;51.00;20.95;;;;;;;1.00;74.92;100556.88;5027374;28;20050;-66
2021/12/07 01:43:17;;;;;;;52.35;19.52;;;;;;;0.83;75.28;100547.66;5048510;28;20052;-66
2021/12/07 01:46:21;;;;;;;52.28;19.35;;;;;;;1.12;74.10;100552.34;5048741;28;20499;-66
2021/12/07 01:59:45;;;;;;;47.83;18.13;;;;;;;0.47;76.10;100528.41;5017790;28;20045;-66
2021/12/07 02:02:16;;;;;;;48.67;19.73;;;;;;;0.46;76.13;100512.94;5028788;28;20111;-65
2021/12/07 02:04:44;;;;;;;37.47;14.45;;;;;;;0.37;76.70;100516.50;5029114;28;20046;-66
2021/12/07 02:07:12;;;;;;;46.15;17.05;;;;;;;0.52;76.03;100523.16;5040578;28;20072;-66
2021/12/07 02:09:42;;;;;;;46.45;20.08;;;;;;;0.49;75.94;100508.59;5048520;28;20053;-66
2021/12/07 02:12:11;;;;;;;50.42;19.33;;;;;;;0.33;76.53;100508.84;5048364;28;20120;-66
2021/12/07 02:14:37;;;;;;;54.47;22.23;;;;;;;0.33;76.65;100501.94;5048576;28;20376;-66
2021/12/07 02:17:07;;;;;;;57.20;21.80;;;;;;;0.36;76.71;100501.06;5048405;28;20122;-66
2021/12/07 02:19:34;;;;;;;56.42;21.52;;;;;;;0.38;76.85;100496.72;5048494;28;20094;-66
2021/12/07 02:22:02;;;;;;;51.08;20.58;;;;;;;0.48;76.12;100496.56;5048438;28;20102;-66
2021/12/07 02:24:29;;;;;;;45.25;16.88;;;;;;;0.16;77.14;100485.00;5048670;28;20068;-66
2021/12/07 02:26:56;;;;;;;52.33;20.30;;;;;;;0.24;77.37;100480.59;5050039;28;20073;-66
2021/12/07 02:29:24;;;;;;;55.00;22.00;;;;;;;0.33;77.15;100477.91;5051993;28;20063;-66
2021/12/07 02:31:52;;;;;;;54.78;22.60;;;;;;;0.52;75.92;100486.22;5035013;28;20463;-66
2021/12/07 02:34:19;;;;;;;49.78;21.05;;;;;;;0.68;75.80;100480.78;5049662;28;20049;-66
2021/12/07 02:36:46;;;;;;;66.05;22.05;;;;;;;0.48;76.33;100472.50;5052619;28;20045;-66
2021/12/07 02:39:14;;;;;;;57.53;21.02;;;;;;;0.21;77.52;100478.06;5054852;28;20052;-66
2021/12/07 02:41:41;;;;;;;61.67;23.85;;;;;;;0.32;77.55;100479.63;5048491;28;20515;-66
2021/12/07 02:44:08;;;;;;;65.43;25.00;;;;;;;0.48;76.92;100473.34;5051733;28;20048;-66
2021/12/07 02:46:34;;;;;;;63.08;21.27;;;;;;;0.40;77.08;100469.19;5072374;28;20497;-66
2021/12/07 02:49:01;;;;;;;57.22;24.00;;;;;;;0.11;78.52;100472.16;5057254;28;20131;-66
2021/12/07 02:51:27;;;;;;;65.82;22.98;;;;;;;0.16;78.48;100479.84;5036482;28;20072;-66
2021/12/07 02:53:56;;;;;;;49.75;17.45;;;;;;;0.12;78.38;100478.16;5049666;28;20103;-66
2021/12/07 02:56:24;;;;;;;67.15;24.88;;;;;;;0.21;78.15;100471.19;5050869;28;20251;-66
2021/12/07 02:58:56;;;;;;;67.45;25.38;;;;;;;0.33;77.91;100472.75;5032026;28;20485;-66
2021/12/07 03:01:27;;;;;;;56.95;20.17;;;;;;;-0.03;79.42;100467.19;5048727;28;20052;-66
2021/12/07 03:04:00;;;;;;;67.47;26.25;;;;;;;0.24;78.31;100465.97;5071989;28;20043;-66
2021/12/07 03:06:36;;;;;;;68.00;26.17;;;;;;;0.30;78.00;100460.72;5072159;28;20056;-66
2021/12/07 03:25:58;;;;;;;73.20;28.15;;;;;;;0.28;78.89;100461.63;5050901;28;20062;-66
2021/12/07 03:28:26;;;;;;;66.45;21.83;;;;;;;-0.05;79.98;100466.38;5034888;28;20055;-66
2021/12/07 03:30:53;;;;;;;77.60;26.67;;;;;;;0.34;78.92;100477.84;5035165;28;20065;-66
2021/12/07 03:33:19;;;;;;;61.80;23.17;;;;;;;0.26;79.02;100474.53;5051483;28;20049;-66
2021/12/07 03:35:46;;;;;;;67.57;27.60;;;;;;;0.51;77.87;100472.47;5050665;28;20060;-66
2021/12/07 03:38:12;;;;;;;73.13;26.77;;;;;;;0.53;77.66;100467.25;5051193;28;20141;-66
2021/12/07 03:40:39;;;;;;;63.78;24.13;;;;;;;0.31;78.64;100482.19;5049741;28;20069;-66
2021/12/07 03:43:06;;;;;;;71.65;27.15;;;;;;;0.36;78.45;100472.69;5051303;28;20069;-66
2021/12/07 03:45:34;;;;;;;64.80;26.08;;;;;;;0.30;78.34;100475.34;5049742;28;20060;-66
2021/12/07 03:48:02;;;;;;;69.90;26.70;;;;;;;0.25;78.99;100482.31;5050560;28;20099;-66
2021/12/07 03:50:29;;;;;;;71.20;28.13;;;;;;;0.13;79.29;100479.88;5049425;28;20045;-66
2021/12/07 03:52:55;;;;;;;68.35;26.25;;;;;;;0.23;78.71;100473.72;5051163;28;20459;-66
2021/12/07 03:55:22;;;;;;;73.25;27.20;;;;;;;0.62;77.48;100478.31;5052439;28;20448;-66
2021/12/07 03:57:49;;;;;;;72.43;27.48;;;;;;;0.42;78.08;100488.06;5037809;28;20096;-66
2021/12/07 04:00:18;;;;;;;73.90;26.48;;;;;;;0.82;76.43;100481.41;5046005;28;20087;-66
2021/12/07 04:02:46;;;;;;;70.28;25.83;;;;;;;0.65;76.41;100485.16;5050573;28;20037;-65
2021/12/07 04:05:18;;;;;;;64.25;26.27;;;;;;;0.13;78.96;100485.03;5051237;28;20045;-65
2021/12/07 04:07:45;;;;;;;68.80;25.55;;;;;;;0.04;79.66;100480.03;5049881;28;20578;-66
2021/12/07 04:10:14;;;;;;;71.45;25.95;;;;;;;0.49;78.19;100472.47;5050333;28;20049;-66
2021/12/07 04:12:41;;;;;;;71.07;26.40;;;;;;;0.52;77.07;100476.72;5050453;28;20118;-66
2021/12/07 04:15:11;;;;;;;59.47;25.83;;;;;;;0.43;78.34;100480.31;5050488;28;20521;-66
2021/12/07 04:17:38;;;;;;;70.55;26.83;;;;;;;0.66;76.89;100482.56;5034165;28;20494;-66
2021/12/07 04:20:07;;;;;;;67.20;24.13;;;;;;;0.83;76.31;100470.22;5050424;28;20064;-66
2021/12/07 04:22:34;;;;;;;68.28;26.60;;;;;;;1.09;75.49;100472.38;5049307;28;20077;-66
2021/12/07 04:25:01;;;;;;;64.05;25.80;;;;;;;0.86;76.21;100469.31;5050328;28;20073;-66
2021/12/07 04:27:29;;;;;;;67.47;26.80;;;;;;;0.74;76.17;100485.00;5040237;28;20119;-66
2021/12/07 04:29:55;;;;;;;71.72;27.52;;;;;;;0.73;76.40;100473.84;5047121;28;20118;-66
2021/12/07 04:32:22;;;;;;;62.67;25.80;;;;;;;0.76;76.98;100470.34;5059684;28;20113;-66
2021/12/07 04:34:48;;;;;;;66.75;27.13;;;;;;;0.77;76.41;100479.81;5049863;28;20048;-66
2021/12/07 04:37:16;;;;;;;61.80;25.23;;;;;;;0.87;76.17;100471.03;5050638;28;20501;-66
2021/12/07 04:39:42;;;;;;;65.90;25.90;;;;;;;1.05;75.60;100473.28;5050131;28;20148;-66
2021/12/07 04:42:09;;;;;;;72.78;25.60;;;;;;;0.97;75.81;100472.56;5042813;28;20103;-66
2021/12/07 04:44:41;;;;;;;68.68;27.60;;;;;;;0.87;75.81;100479.63;5046671;28;20513;-66
2021/12/07 04:47:14;;;;;;;68.32;26.50;;;;;;;1.05;75.69;100475.00;5048890;28;20133;-66
2021/12/07 04:57:53;;;;;;;64.20;24.00;;;;;;;1.08;75.19;100480.13;5038165;28;20582;-66
2021/12/07 05:00:21;;;;;;;62.67;24.65;;;;;;;1.51;73.79;100482.81;5044922;28;20067;-66
2021/12/07 05:02:53;;;;;;;68.75;25.17;;;;;;;1.62;72.42;100475.69;5049737;28;20044;-66
2021/12/07 05:05:21;;;;;;;70.95;26.92;;;;;;;1.60;73.10;100477.44;5049480;28;20049;-66
2021/12/07 05:07:54;;;;;;;66.60;25.20;;;;;;;1.29;74.25;100480.63;5049777;28;20045;-66
2021/12/07 05:10:31;;;;;;;69.93;27.05;;;;;;;1.48;73.61;100484.53;5048536;28;20044;-66
2021/12/07 05:18:38;;;;;;;77.13;26.85;;;;;;;0.71;76.83;100493.63;5050655;28;20094;-66
2021/12/07 05:24:03;;;;;;;83.53;29.58;;;;;;;0.52;78.54;100492.19;5048904;28;20056;-66
2021/12/07 05:37:44;;;;;;;73.38;28.52;;;;;;;0.51;78.91;100471.59;5049160;28;20071;-65
2021/12/07 05:37:51;;;;;;;74.55;30.05;;;;;;;0.91;77.13;100473.53;5048818;28;20037;-65
2021/12/07 05:40:21;;;;;;;82.35;31.02;;;;;;;0.71;77.63;100475.56;5049010;28;20408;-65
2021/12/07 05:42:48;;;;;;;83.07;31.77;;;;;;;0.48;78.24;100491.41;5048136;28;20460;-65
2021/12/07 05:45:17;;;;;;;91.70;31.75;;;;;;;0.11;79.94;100494.53;5028978;28;20045;-65
2021/12/07 05:47:43;;;;;;;89.55;31.67;;;;;;;0.60;78.83;100503.28;5036017;28;20099;-65
2021/12/07 05:50:13;;;;;;;81.60;28.50;;;;;;;0.44;78.65;100505.22;5048141;28;20095;-65
2021/12/07 05:52:40;;;;;;;78.90;29.67;;;;;;;0.24;79.85;100506.38;5055289;28;20041;-66
2021/12/07 05:55:07;;;;;;;89.32;30.17;;;;;;;0.43;79.21;100500.09;5064177;28;20102;-66
2021/12/07 05:57:36;;;;;;;83.28;30.58;;;;;;;0.62;78.64;100501.53;5032409;28;20072;-66
2021/12/07 06:00:05;;;;;;;79.10;28.15;;;;;;;0.58;78.56;100505.03;5037098;28;20048;-66
2021/12/07 06:02:31;;;;;;;89.03;29.92;;;;;;;0.78;77.94;100495.25;5048191;28;20053;-65
2021/12/07 06:04:57;;;;;;;85.72;28.08;;;;;;;0.74;78.12;100495.34;5048878;28;20130;-65
2021/12/07 06:07:24;;;;;;;84.75;29.35;;;;;;;1.06;76.73;100497.38;5054633;28;20076;-65
2021/12/07 06:09:50;;;;;;;83.68;29.90;;;;;;;0.60;78.28;100500.69;5057420;28;20489;-65
2021/12/07 06:12:16;;;;;;;83.82;28.85;;;;;;;0.88;78.00;100490.81;5041005;28;20099;-65
2021/12/07 06:14:44;;;;;;;81.80;29.45;;;;;;;1.06;76.32;100492.22;5050273;28;20056;-65
2021/12/07 06:17:12;;;;;;;81.32;30.00;;;;;;;0.85;77.48;100489.09;5048611;28;20121;-65
2021/12/07 06:19:39;;;;;;;84.95;31.05;;;;;;;0.63;78.49;100492.91;5052063;28;26087;-65
2021/12/07 06:22:06;;;;;;;91.93;31.00;;;;;;;0.76;78.01;100488.41;5045582;28;20045;-66
2021/12/07 06:24:33;;;;;;;86.38;30.00;;;;;;;0.97;76.90;100494.06;5052719;28;20055;-66
2021/12/07 06:26:59;;;;;;;86.05;30.10;;;;;;;0.80;77.63;100495.22;5036120;28;20490;-66
2021/12/07 06:29:26;;;;;;;75.78;28.70;;;;;;;0.44;79.22;100499.22;5031980;28;20103;-66
2021/12/07 06:31:54;;;;;;;75.13;28.17;;;;;;;0.47;79.79;100500.03;5045645;28;20073;-66
2021/12/07 06:34:20;;;;;;;85.65;29.90;;;;;;;0.02;81.73;100505.81;5048419;28;20081;-65
2021/12/07 06:36:47;;;;;;;84.47;28.38;;;;;;;0.31;80.05;100502.84;5048707;28;20072;-65
2021/12/07 06:39:13;;;;;;;82.93;31.42;;;;;;;0.95;77.92;100510.47;5048160;28;20061;-65
2021/12/07 06:41:40;;;;;;;82.25;29.25;;;;;;;0.66;78.49;100517.81;5045385;28;20049;-65
2021/12/07 06:44:06;;;;;;;87.43;30.38;;;;;;;0.69;78.71;100505.72;5022669;28;20076;-65
2021/12/07 06:46:33;;;;;;;81.82;29.48;;;;;;;0.96;76.85;100518.19;5028704;28;20049;-65
2021/12/07 06:49:01;;;;;;;78.50;27.58;;;;;;;1.01;77.54;100510.38;5033532;28;20050;-65
2021/12/07 06:51:28;;;;;;;81.50;29.23;;;;;;;0.91;77.64;100522.59;5028101;28;20050;-65
2021/12/07 06:53:55;;;;;;;77.35;29.13;;;;;;;0.55;78.86;100520.56;5054798;28;20128;-66
2021/12/07 06:56:21;;;;;;;74.57;27.77;;;;;;;0.29;80.79;100528.66;5050293;28;20073;-64
2021/12/07 06:58:47;;;;;;;85.80;30.38;;;;;;;0.47;80.22;100527.56;5031845;28;20050;-64
2021/12/07 07:01:14;;;;;;;71.38;27.00;;;;;;;0.82;78.87;100535.63;5027783;28;20095;-65
2021/12/07 07:03:41;;;;;;;76.70;26.73;;;;;;;1.21;77.17;100538.44;5047488;28;20137;-64
2021/12/07 07:06:09;;;;;;;78.72;28.02;;;;;;;0.80;78.16;100541.69;5057265;28;20045;-64
2021/12/07 07:08:36;;;;;;;77.60;29.92;;;;;;;0.66;79.41;100549.63;5063302;28;20454;-64
2021/12/07 07:11:03;;;;;;;70.22;28.88;;;;;;;0.56;79.98;100545.47;5041991;28;20045;-64
2021/12/07 07:13:30;;;;;;;79.22;28.45;;;;;;;0.82;79.05;100538.19;5037759;28;20049;-64
2021/12/07 07:15:56;;;;;;;74.68;27.95;;;;;;;0.91;78.97;100535.50;5051345;28;20119;-64
2021/12/07 07:18:23;;;;;;;72.15;27.90;;;;;;;0.44;80.35;100543.91;5051363;28;20107;-64
2021/12/07 07:20:49;;;;;;;80.70;28.15;;;;;;;0.55;80.48;100554.09;5038616;28;20119;-64
2021/12/07 07:23:17;;;;;;;71.00;27.50;;;;;;;0.69;79.56;100551.31;5051138;28;20071;-65
2021/12/07 07:25:43;;;;;;;74.65;28.02;;;;;;;0.90;78.69;100551.00;5062736;28;20367;-64
2021/12/07 07:28:10;;;;;;;75.70;27.20;;;;;;;1.10;78.30;100540.34;5043223;28;20084;-64
2021/12/07 07:30:36;;;;;;;71.75;27.75;;;;;;;1.38;77.47;100549.34;5044218;28;20072;-65
2021/12/07 07:33:03;;;;;;;70.55;27.33;;;;;;;0.90;78.48;100546.69;5050655;28;20107;-64
2021/12/07 07:35:30;;;;;;;82.35;28.65;;;;;;;1.11;78.12;100553.22;5051246;28;20131;-65
2021/12/07 07:37:56;;;;;;;83.82;28.55;;;;;;;1.38;77.15;100554.50;5051007;28;20044;-65
2021/12/07 07:40:24;;;;;;;73.35;28.05;;;;;;;1.43;76.78;100558.72;5050318;28;20106;-64
2021/12/07 07:42:51;;;;;;;83.95;28.35;;;;;;;1.38;77.13;100551.91;5035644;28;20521;-65
2021/12/07 07:45:17;;;;;;;72.45;26.05;;;;;;;1.31;77.44;100560.66;5051645;28;20145;-65
2021/12/07 07:47:44;;;;;;;76.95;28.77;;;;;;;0.87;79.07;100561.38;5050361;28;20122;-65
2021/12/07 07:50:13;;;;;;;66.90;27.10;;;;;;;0.71;79.59;100568.47;5050206;28;20069;-65
2021/12/07 07:52:39;;;;;;;83.22;29.25;;;;;;;0.86;79.69;100573.41;5051279;28;20064;-64
2021/12/07 07:55:07;;;;;;;70.70;26.60;;;;;;;0.49;80.68;100572.22;5051567;28;20099;-64
2021/12/07 07:57:35;;;;;;;67.88;27.27;;;;;;;0.91;79.14;100575.94;5034799;28;20306;-64
2021/12/07 08:00:02;;;;;;;73.40;28.17;;;;;;;0.81;79.41;100576.94;5040885;28;20103;-64
2021/12/07 08:02:28;;;;;;;77.63;27.00;;;;;;;0.75;79.74;100579.59;5050265;28;20087;-64
2021/12/07 08:04:54;;;;;;;71.65;24.17;;;;;;;0.50;81.05;100581.69;5050404;28;20045;-65
2021/12/07 08:07:21;;;;;;;69.95;26.77;;;;;;;0.38;81.08;100587.84;5050115;28;20413;-64
2021/12/07 08:09:47;;;;;;;71.88;26.52;;;;;;;0.92;79.54;100591.38;5051065;28;20044;-62
2021/12/07 08:12:13;;;;;;;66.85;26.60;;;;;;;1.07;78.83;100586.88;5050160;28;20115;-63
2021/12/07 08:14:41;;;;;;;78.05;26.15;;;;;;;0.99;79.23;100592.16;5050554;28;20051;-63
2021/12/07 08:17:07;;;;;;;70.07;25.25;;;;;;;0.83;79.82;100582.94;5049839;28;20053;-64
2021/12/07 08:19:34;;;;;;;59.00;21.23;;;;;;;0.68;79.82;100608.94;5044130;28;20103;-64
2021/12/07 08:22:00;;;;;;;71.13;26.75;;;;;;;0.78;79.92;100606.22;5034696;28;20049;-64
2021/12/07 08:24:26;;;;;;;65.45;24.60;;;;;;;0.85;79.46;100607.00;5044732;28;20136;-63
2021/12/07 08:26:53;;;;;;;75.20;25.20;;;;;;;1.23;78.89;100609.84;5038924;28;20049;-63
2021/12/07 08:29:19;;;;;;;63.45;24.05;;;;;;;1.58;77.36;100611.88;5038929;28;20616;-62
2021/12/07 08:31:47;;;;;;;73.88;26.38;;;;;;;2.03;75.27;100614.50;5044960;28;20489;-62
2021/12/07 08:34:13;;;;;;;68.22;25.42;;;;;;;2.12;74.63;100611.72;5050162;28;20598;-63
2021/12/07 08:36:40;;;;;;;63.45;24.40;;;;;;;1.78;75.15;100621.84;5050197;28;20065;-62
2021/12/07 08:39:07;;;;;;;61.03;22.58;;;;;;;1.74;76.11;100613.28;5050090;28;20044;-62
2021/12/07 08:41:34;;;;;;;66.25;23.25;;;;;;;1.63;76.29;100610.03;5039425;28;20134;-62
2021/12/07 08:44:00;;;;;;;55.95;22.40;;;;;;;1.38;77.17;100621.66;5047765;28;20567;-63
2021/12/07 08:46:27;;;;;;;62.55;23.73;;;;;;;1.45;76.73;100620.69;5049968;28;20049;-62
2021/12/07 08:48:54;;;;;;;65.07;24.95;;;;;;;1.43;77.18;100612.97;5049670;28;20238;-63
2021/12/07 08:51:21;;;;;;;68.95;25.25;;;;;;;1.50;76.50;100615.44;5026927;28;20099;-62
2021/12/07 08:53:53;;;;;;;69.10;23.52;;;;;;;1.52;77.02;100605.94;5043405;28;20064;-62
2021/12/07 09:01:49;;;;;;;65.22;22.65;;;;;;;1.37;77.49;100623.38;5040193;28;20193;-63
2021/12/07 09:04:18;;;;;;;69.43;25.75;;;;;;;1.26;78.08;100624.44;5045282;28;20064;-62
2021/12/07 09:06:45;;;;;;;68.68;24.33;;;;;;;1.61;77.15;100616.97;5048281;28;20131;-62
2021/12/07 09:09:12;;;;;;;65.38;24.48;;;;;;;1.99;75.56;100613.72;5037153;28;20121;-63
2021/12/07 09:11:38;;;;;;;56.20;23.88;;;;;;;2.15;74.77;100614.25;5044785;28;20048;-63
2021/12/07 09:14:05;;;;;;;67.97;24.65;;;;;;;1.96;75.56;100616.31;5049493;28;20141;-63
2021/12/07 09:16:31;;;;;;;65.40;24.85;;;;;;;2.10;75.15;100619.53;5049365;28;20090;-63
2021/12/07 09:18:57;;;;;;;65.25;24.95;;;;;;;2.24;74.88;100630.47;5049212;28;20493;-63
2021/12/07 09:21:25;;;;;;;61.67;24.60;;;;;;;2.68;72.98;100621.78;5032165;28;20551;-63
2021/12/07 09:23:52;;;;;;;59.05;23.92;;;;;;;2.44;73.57;100617.97;5049149;28;20080;-63
2021/12/07 09:26:19;;;;;;;55.50;24.20;;;;;;;2.51;73.86;100613.53;5049512;28;20073;-63
2021/12/07 09:28:46;;;;;;;56.58;24.63;;;;;;;2.53;73.40;100614.34;5032491;28;20135;-62
2021/12/07 09:31:12;;;;;;;59.22;21.98;;;;;;;1.89;75.21;100617.31;5026840;28;20046;-62
2021/12/07 09:33:41;;;;;;;60.20;22.60;;;;;;;1.86;75.77;100623.41;5029432;28;20046;-62
2021/12/07 09:36:08;;;;;;;64.35;24.65;;;;;;;2.17;74.67;100618.53;5029130;28;20461;-62
2021/12/07 09:38:36;;;;;;;61.10;24.13;;;;;;;2.86;72.90;100608.44;5027563;28;20080;-62
2021/12/07 09:41:05;;;;;;;55.33;23.85;;;;;;;3.22;71.33;100611.06;5030206;28;20071;-62
2021/12/07 09:43:31;;;;;;;57.63;22.98;;;;;;;3.24;70.94;100610.16;5051490;28;20653;-62
2021/12/07 09:45:58;;;;;;;62.55;23.63;;;;;;;3.00;71.92;100622.81;5069002;28;20109;-63
2021/12/07 09:48:25;;;;;;;59.97;24.52;;;;;;;3.27;71.17;100624.75;5052457;28;20497;-63
2021/12/07 09:50:53;;;;;;;48.53;21.20;;;;;;;2.64;72.20;100614.97;5035858;28;20133;-63
2021/12/07 09:53:21;;;;;;;55.67;23.17;;;;;;;2.31;73.49;100626.00;5045779;28;20046;-63
2021/12/07 09:55:51;;;;;;;48.13;20.42;;;;;;;2.31;73.76;100624.28;5035029;28;20038;-63
2021/12/07 09:58:18;;;;;;;54.08;21.17;;;;;;;2.61;73.69;100621.94;5032528;28;20069;-63
2021/12/07 10:00:47;;;;;;;52.55;20.85;;;;;;;3.43;71.47;100626.13;5043120;28;20110;-63
2021/12/07 10:03:15;;;;;;;55.05;22.92;;;;;;;3.00;72.26;100627.97;5028433;28;20061;-63
2021/12/07 10:05:41;;;;;;;51.60;23.35;;;;;;;3.22;69.99;100634.38;5028860;28;20128;-63
2021/12/07 10:08:09;;;;;;;49.28;20.92;;;;;;;3.55;69.61;100624.97;5040956;28;20045;-63
2021/12/07 10:10:37;;;;;;;46.53;20.33;;;;;;;3.66;69.14;100628.13;5046644;28;20076;-63
2021/12/07 10:13:06;;;;;;;50.17;21.25;;;;;;;3.85;68.56;100626.75;5043598;28;20198;-63
2021/12/07 10:15:33;;;;;;;45.60;20.02;;;;;;;3.68;69.13;100624.59;5049346;28;20041;-63
2021/12/07 10:18:02;;;;;;;50.88;20.30;;;;;;;4.03;67.98;100623.66;5048243;28;20049;-63
2021/12/07 10:20:37;;;;;;;47.17;20.63;;;;;;;3.74;68.75;100628.78;5045056;28;20098;-63
2021/12/07 10:23:06;;;;;;;45.13;18.17;;;;;;;2.95;70.62;100620.34;5048689;28;20118;-64
2021/12/07 10:25:32;;;;;;;49.88;20.50;;;;;;;3.19;71.30;100627.53;5033327;28;20053;-63
2021/12/07 10:27:59;;;;;;;49.20;21.38;;;;;;;3.72;69.72;100633.16;5054541;28;20041;-63
2021/12/07 10:30:27;;;;;;;46.30;19.23;;;;;;;3.95;68.88;100611.81;5059870;28;20048;-63
2021/12/07 10:33:01;;;;;;;37.83;19.90;;;;;;;4.85;66.63;100621.31;5048544;28;20041;-63
2021/12/07 10:35:30;;;;;;;43.60;20.33;;;;;;;4.91;64.80;100621.97;5048169;28;20060;-63
2021/12/07 10:38:10;;;;;;;40.22;19.48;;;;;;;5.33;63.27;100617.19;5048247;28;20498;-63
2021/12/07 10:40:37;;;;;;;40.85;19.77;;;;;;;5.72;62.77;100619.41;5046196;28;20490;-63
2021/12/07 10:43:03;;;;;;;43.78;20.55;;;;;;;6.39;63.00;100617.06;5037886;28;20064;-64
2021/12/07 10:45:31;;;;;;;37.28;19.63;;;;;;;6.98;58.99;100609.63;5048362;28;20069;-64
2021/12/07 10:47:58;;;;;;;39.65;20.38;;;;;;;7.28;58.67;100605.78;5047965;28;20065;-64
2021/12/07 10:50:24;;;;;;;36.05;19.60;;;;;;;7.80;57.08;100601.84;5066856;28;20056;-64
2021/12/07 10:52:51;;;;;;;35.28;19.92;;;;;;;7.68;57.16;100595.44;5063839;28;20115;-64
2021/12/07 10:55:18;;;;;;;39.38;20.50;;;;;;;7.82;56.84;100607.88;5053552;28;20455;-64
2021/12/07 10:57:48;;;;;;;40.55;20.45;;;;;;;8.04;54.68;100605.19;5048347;28;20052;-64
2021/12/07 11:00:21;;;;;;;37.45;18.73;;;;;;;7.58;55.64;100617.56;5052243;28;20044;-65
2021/12/07 11:02:52;;;;;;;36.03;20.50;;;;;;;7.96;55.76;100608.13;5033073;28;20041;-64
2021/12/07 11:05:22;;;;;;;39.25;20.27;;;;;;;7.93;55.25;100594.38;5032248;28;20048;-64
2021/12/07 11:07:50;;;;;;;40.47;21.33;;;;;;;8.52;54.49;100595.22;5047261;28;20068;-64
2021/12/07 11:10:21;;;;;;;37.90;20.13;;;;;;;8.05;57.54;100591.22;5051379;28;20124;-64
2021/12/07 11:12:56;;;;;;;39.85;20.63;;;;;;;8.15;57.15;100589.91;5051609;28;20047;-64
2021/12/07 11:15:25;;;;;;;39.25;19.08;;;;;;;8.44;55.41;100589.50;5051800;28;20433;-63
2021/12/07 11:17:56;;;;;;;42.85;21.90;;;;;;;8.23;54.51;100586.06;5047162;28;20124;-64
2021/12/07 11:20:23;;;;;;;;;;;;;;;7.78;55.09;100578.44;5042599;28;20165;-64
2021/12/07 11:22:53;;;;;;;36.78;17.98;;;;;;;7.43;56.04;100592.09;5072238;28;20372;-64
2021/12/07 11:31:15;;;;;;;42.75;18.27;;;;;;;6.53;59.17;100607.00;5050657;28;20047;-64
2021/12/07 11:33:43;;;;;;;41.42;19.08;;;;;;;6.89;59.97;100594.31;5047486;28;20067;-64
2021/12/07 11:36:23;;;;;;;41.70;18.52;;;;;;;7.30;57.93;100597.00;5048711;28;20045;-64
2021/12/07 11:38:50;;;;;;;36.05;17.98;;;;;;;7.22;57.57;100595.59;5051679;28;20036;-64
2021/12/07 11:41:21;;;;;;;33.30;18.33;;;;;;;7.10;59.87;100606.50;5053511;28;20067;-64
2021/12/07 11:44:06;;;;;;;38.15;17.98;;;;;;;6.19;61.18;100603.03;5050951;28;20053;-65
2021/12/07 11:46:36;;;;;;;41.20;19.00;;;;;;;5.57;62.80;100615.56;5050831;28;20083;-64
2021/12/07 11:49:11;;;;;;;37.88;18.17;;;;;;;5.70;62.45;100616.00;5050700;28;20526;-64
2021/12/07 11:51:38;;;;;;;39.75;18.00;;;;;;;5.86;62.10;100612.88;5050639;28;20045;-64
2021/12/07 11:54:05;;;;;;;43.97;18.95;;;;;;;6.06;63.36;100608.72;5050212;28;20045;-64
2021/12/07 11:56:32;;;;;;;42.17;19.70;;;;;;;6.02;62.67;100610.59;5035840;28;20096;-64
2021/12/07 11:58:58;;;;;;;43.47;20.65;;;;;;;6.27;61.95;100618.38;5035247;28;20104;-64
2021/12/07 12:01:25;;;;;;;38.20;18.48;;;;;;;6.52;61.18;100611.34;5046794;28;20119;-64
2021/12/07 12:03:51;;;;;;;39.70;18.45;;;;;;;5.93;62.49;100607.44;5050874;28;20543;-64
2021/12/07 12:06:19;;;;;;;42.33;20.15;;;;;;;5.78;64.42;100614.84;5048670;28;20110;-64
2021/12/07 12:08:45;;;;;;;39.92;18.33;;;;;;;5.65;64.22;100623.97;5049146;28;20097;-64
2021/12/07 12:11:21;;;;;;;40.65;19.25;;;;;;;5.67;65.04;100621.31;5049171;28;20059;-64
2021/12/07 12:13:57;;;;;;;42.08;18.85;;;;;;;5.79;63.65;100629.56;5049800;28;20072;-64
2021/12/07 12:16:30;;;;;;;48.88;21.38;;;;;;;6.08;64.31;100625.97;5049138;28;20075;-64
2021/12/07 12:19:05;;;;;;;43.75;19.48;;;;;;;6.02;63.53;100633.16;5050144;28;20068;-64
2021/12/07 12:21:38;;;;;;;45.72;19.05;;;;;;;6.17;63.27;100628.25;5050442;28;20490;-64
2021/12/07 12:24:14;;;;;;;45.75;20.35;;;;;;;5.41;65.94;100640.34;5050499;28;20048;-64
2021/12/07 12:26:44;;;;;;;43.30;19.35;;;;;;;5.55;65.58;100642.50;5045623;28;20106;-64
2021/12/07 12:29:20;;;;;;;45.40;19.13;;;;;;;5.40;66.01;100649.06;5050322;28;20048;-64
2021/12/07 12:31:50;;;;;;;40.70;18.48;;;;;;;5.28;65.93;100649.47;5049847;28;20095;-64
2021/12/07 12:34:20;;;;;;;47.93;20.30;;;;;;;5.05;67.84;100647.56;5050646;28;20437;-64
2021/12/07 12:37:01;;;;;;;42.58;19.38;;;;;;;5.16;66.50;100655.03;5050135;28;20620;-64
2021/12/07 12:39:46;;;;;;;40.00;19.33;;;;;;;5.62;65.81;100644.00;5049861;28;20465;-64
2021/12/07 12:42:18;;;;;;;46.92;20.92;;;;;;;5.75;64.97;100630.56;5050261;28;20094;-64
2021/12/07 12:44:44;;;;;;;47.45;20.35;;;;;;;5.52;64.93;100642.59;5050122;28;20071;-65
2021/12/07 12:47:11;;;;;;;42.03;18.55;;;;;;;5.31;65.00;100646.75;5049972;28;20529;-65